Time;durP1;ratioP1;P1;durP2;ratioP2;P2;SDS_P1;SDS_P2;PMS_P1;PMS_P2;Temp;Humidity;BMP_temperature;BMP_pressure;BME280_temperature;BME280_humidity;BME280_pressure;Samples;Min_cycle;Max_cycle;Signal;HPM_P1;HPM_P2
2021/08/10 00:02:23;;;;;;;11.13;5.68;;;;;;;26.33;nan;95236.25;5003988;28;20064;-75
2021/08/10 00:04:49;;;;;;;7.35;4.95;;;;;;;26.34;nan;95228.78;5007857;28;20540;-74
2021/08/10 00:07:15;;;;;;;8.88;5.07;;;;;;;26.32;nan;95228.56;5006540;28;20045;-75
2021/08/10 00:09:40;;;;;;;8.10;5.47;;;;;;;26.32;nan;95228.56;5005759;28;20030;-75
2021/08/10 00:12:06;;;;;;;8.18;5.15;;;;;;;26.32;nan;95217.59;5007556;28;20034;-75
2021/08/10 00:14:31;;;;;;;9.18;5.45;;;;;;;26.27;nan;95221.16;5007490;28;20116;-74
2021/08/10 00:16:57;;;;;;;8.02;5.25;;;;;;;26.21;nan;95217.75;5007319;28;20034;-74
2021/08/10 00:19:22;;;;;;;8.50;5.13;;;;;;;26.17;nan;95225.53;4991351;28;20412;-74
2021/08/10 00:21:48;;;;;;;7.82;4.88;;;;;;;26.14;nan;95229.31;5023227;28;20479;-75
2021/08/10 00:24:13;;;;;;;8.02;5.40;;;;;;;26.13;nan;95232.56;5024161;28;20055;-75
2021/08/10 00:26:39;;;;;;;8.57;5.72;;;;;;;26.07;nan;95235.41;5008267;28;20030;-75
2021/08/10 00:29:04;;;;;;;9.63;5.40;;;;;;;26.04;nan;95230.97;5006535;28;20048;-75
2021/08/10 00:31:30;;;;;;;7.28;5.00;;;;;;;26.00;nan;95230.53;5002022;28;20045;-75
2021/08/10 00:33:56;;;;;;;11.68;5.20;;;;;;;25.96;nan;95230.13;5004009;28;20544;-75
2021/08/10 00:36:22;;;;;;;9.35;5.53;;;;;;;25.96;nan;95235.59;5006203;28;20051;-77
2021/08/10 00:38:47;;;;;;;8.07;5.20;;;;;;;25.93;nan;95225.69;5009621;28;20028;-77
2021/08/10 00:41:13;;;;;;;9.18;5.50;;;;;;;25.94;nan;95232.63;4999680;28;20022;-78
2021/08/10 00:43:40;;;;;;;8.98;5.60;;;;;;;25.87;nan;95222.31;5022505;28;20496;-76
2021/08/10 00:46:07;;;;;;;9.07;5.20;;;;;;;25.86;nan;95220.81;5026280;28;20415;-77
2021/08/10 00:48:32;;;;;;;7.68;5.50;;;;;;;25.81;nan;95229.09;5008424;28;20064;-77
2021/08/10 00:50:58;;;;;;;8.18;5.57;;;;;;;25.76;nan;95221.72;5008392;28;20492;-77
2021/08/10 00:53:24;;;;;;;9.13;5.55;;;;;;;25.75;nan;95224.97;5026229;28;20022;-77
2021/08/10 00:55:49;;;;;;;8.40;5.28;;;;;;;25.73;nan;95227.50;5027248;28;20407;-76
2021/08/10 00:58:15;;;;;;;8.23;5.55;;;;;;;25.69;nan;95232.53;5046506;28;20475;-76
2021/08/10 01:00:40;;;;;;;7.75;5.53;;;;;;;25.66;nan;95228.09;5039598;28;20045;-76
2021/08/10 01:03:06;;;;;;;9.02;5.68;;;;;;;25.68;nan;95236.50;5026211;28;20064;-76
2021/08/10 01:05:31;;;;;;;8.18;5.55;;;;;;;25.64;nan;95236.06;5022814;28;20029;-76
2021/08/10 01:08:06;;;;;;;7.65;5.57;;;;;;;25.63;nan;95245.50;5005239;28;20057;-76
2021/08/10 01:10:34;;;;;;;8.88;5.35;;;;;;;25.61;nan;95242.56;5005443;28;20026;-76
2021/08/10 01:13:16;;;;;;;8.45;5.78;;;;;;;25.58;nan;95243.59;5004921;28;20037;-76
2021/08/10 01:15:45;;;;;;;9.77;5.93;;;;;;;25.57;nan;95247.56;5018061;28;20033;-74
2021/08/10 01:18:15;;;;;;;8.30;5.70;;;;;;;25.55;nan;95247.38;4992623;28;20079;-75
2021/08/10 01:21:00;;;;;;;7.03;5.57;;;;;;;25.53;nan;95247.13;5008136;28;20022;-76
2021/08/10 01:23:26;;;;;;;9.82;5.88;;;;;;;25.54;nan;95254.09;5025038;28;20040;-76
2021/08/10 01:26:23;;;;;;;9.68;5.70;;;;;;;25.52;nan;95251.13;5005328;28;20033;-76
2021/08/10 01:29:11;;;;;;;8.43;5.70;;;;;;;25.54;nan;95254.09;5026300;28;20035;-76
2021/08/10 01:31:37;;;;;;;8.68;5.20;;;;;;;25.51;nan;95238.72;5024642;28;20046;-75
2021/08/10 01:34:22;;;;;;;8.25;5.88;;;;;;;25.51;nan;95233.25;5008260;28;20120;-76
2021/08/10 01:36:47;;;;;;;7.72;5.97;;;;;;;25.49;nan;95213.88;4990582;28;20029;-76
2021/08/10 01:39:13;;;;;;;8.23;5.93;;;;;;;25.48;nan;95223.34;4999616;28;20500;-76
2021/08/10 01:41:38;;;;;;;9.65;5.88;;;;;;;25.45;nan;95224.38;5008362;28;20535;-76
2021/08/10 01:44:06;;;;;;;8.55;5.65;;;;;;;25.53;nan;95222.50;5008086;28;20042;-76
2021/08/10 01:46:31;;;;;;;8.45;5.47;;;;;;;25.53;nan;95208.84;5026653;28;20504;-76
2021/08/10 01:48:57;;;;;;;9.15;5.60;;;;;;;25.54;nan;95211.06;5025340;28;20028;-76
2021/08/10 01:51:23;;;;;;;9.10;6.30;;;;;;;25.54;nan;95215.78;5018064;28;20053;-77
2021/08/10 01:53:49;;;;;;;9.95;5.25;;;;;;;25.52;nan;95212.84;5022878;28;20029;-76
2021/08/10 01:56:16;;;;;;;10.48;5.70;;;;;;;25.48;nan;95223.34;5015095;28;20030;-76
2021/08/10 01:58:41;;;;;;;8.82;5.90;;;;;;;25.44;nan;95217.41;5007979;28;20049;-76
2021/08/10 02:01:07;;;;;;;7.95;5.82;;;;;;;25.39;nan;95226.44;4990881;28;20496;-76
2021/08/10 02:03:32;;;;;;;7.68;5.63;;;;;;;25.38;nan;95224.94;5024527;28;20050;-76
2021/08/10 02:05:58;;;;;;;6.85;5.10;;;;;;;25.34;nan;95219.06;4991153;28;20091;-76
2021/08/10 02:08:23;;;;;;;9.25;5.68;;;;;;;25.31;nan;95206.41;5024145;28;20083;-76
2021/08/10 02:10:50;;;;;;;9.60;6.00;;;;;;;25.28;nan;95204.00;5025253;28;20475;-76
2021/08/10 02:13:15;;;;;;;8.80;5.53;;;;;;;25.22;nan;95212.25;5006209;28;20036;-75
2021/08/10 02:15:41;;;;;;;7.30;6.25;;;;;;;25.22;nan;95212.25;5024989;28;20033;-76
2021/08/10 02:18:08;;;;;;;7.70;5.93;;;;;;;25.19;nan;95218.75;4990693;28;20038;-76
2021/08/10 02:20:34;;;;;;;7.88;5.55;;;;;;;25.17;nan;95228.72;5025196;28;20029;-75
2021/08/10 02:22:59;;;;;;;8.63;5.55;;;;;;;25.16;nan;95227.97;5006939;28;20527;-77
2021/08/10 02:25:26;;;;;;;8.43;6.20;;;;;;;25.03;nan;95205.28;5025127;28;20095;-76
2021/08/10 02:27:53;;;;;;;8.80;5.78;;;;;;;25.15;nan;95234.69;4986376;28;20037;-76
2021/08/10 02:30:25;;;;;;;8.95;5.85;;;;;;;25.13;nan;95231.75;5007766;28;20113;-76
2021/08/10 02:32:50;;;;;;;6.78;5.68;;;;;;;25.10;nan;95232.78;5022382;28;20526;-76
2021/08/10 02:35:21;;;;;;;6.88;5.60;;;;;;;24.99;nan;95221.97;5025649;28;20033;-76
2021/08/10 02:37:46;;;;;;;8.55;5.88;;;;;;;25.07;nan;95242.00;5009897;28;20206;-76
2021/08/10 02:40:13;;;;;;;10.23;5.65;;;;;;;25.06;nan;95232.31;5011383;28;20042;-76
2021/08/10 02:42:38;;;;;;;9.68;5.85;;;;;;;24.95;nan;95216.03;5004595;28;20805;-76
2021/08/10 02:45:04;;;;;;;8.93;5.93;;;;;;;25.03;nan;95232.63;5020576;28;20029;-76
2021/08/10 02:47:30;;;;;;;10.07;5.85;;;;;;;25.02;nan;95237.34;5019332;28;20441;-76
2021/08/10 02:49:56;;;;;;;7.60;5.32;;;;;;;25.00;nan;95228.19;5007612;28;20061;-77
2021/08/10 02:52:21;;;;;;;8.48;5.70;;;;;;;24.98;nan;95236.84;5044312;28;20078;-76
2021/08/10 02:54:47;;;;;;;8.80;5.43;;;;;;;24.97;nan;95234.63;5043746;28;20487;-76
2021/08/10 02:57:15;;;;;;;8.13;6.18;;;;;;;24.84;nan;95221.63;5023985;28;20032;-77
2021/08/10 02:59:44;;;;;;;9.60;5.68;;;;;;;24.88;nan;95243.91;4990886;28;20050;-76
2021/08/10 03:02:18;;;;;;;9.13;5.97;;;;;;;24.86;nan;95235.50;5025143;28;20025;-76
2021/08/10 03:04:54;;;;;;;8.30;6.20;;;;;;;24.81;nan;95232.09;5025237;28;20111;-77
2021/08/10 03:07:19;;;;;;;7.82;5.22;;;;;;;24.78;nan;95238.59;4998003;28;20075;-77
2021/08/10 03:09:46;;;;;;;6.82;5.53;;;;;;;24.75;nan;95245.06;5020131;28;20039;-77
2021/08/10 03:12:12;;;;;;;8.60;6.45;;;;;;;24.72;nan;95241.38;5021933;28;20484;-76
2021/08/10 03:14:37;;;;;;;8.23;6.13;;;;;;;24.71;nan;95244.59;5022196;28;20026;-77
2021/08/10 03:17:03;;;;;;;7.78;5.70;;;;;;;24.68;nan;95267.47;5010076;28;20036;-75
2021/08/10 03:19:29;;;;;;;7.72;5.47;;;;;;;24.66;nan;95250.88;5027294;28;20056;-75
2021/08/10 03:21:54;;;;;;;9.55;6.20;;;;;;;24.65;nan;95263.03;5010356;28;20033;-76
2021/08/10 03:24:20;;;;;;;8.30;5.93;;;;;;;24.65;nan;95263.03;5010654;28;20021;-75
2021/08/10 03:26:46;;;;;;;8.65;5.72;;;;;;;24.64;nan;95250.66;5026849;28;20040;-74
2021/08/10 03:29:11;;;;;;;7.88;5.80;;;;;;;24.58;nan;95258.88;5026235;28;20108;-76
2021/08/10 03:31:40;;;;;;;8.93;6.05;;;;;;;24.61;nan;95262.59;5022751;28;20484;-75
2021/08/10 03:34:05;;;;;;;9.93;6.10;;;;;;;24.59;nan;95259.66;5025360;28;20064;-76
2021/08/10 03:36:32;;;;;;;8.27;5.43;;;;;;;24.55;nan;95261.91;5025705;28;20025;-75
2021/08/10 03:38:57;;;;;;;8.88;5.90;;;;;;;24.53;nan;95262.41;5000292;28;20033;-76
2021/08/10 03:41:23;;;;;;;8.45;6.50;;;;;;;24.52;nan;95260.19;5010261;28;20033;-75
2021/08/10 03:43:49;;;;;;;7.55;5.70;;;;;;;24.50;nan;95251.78;5027915;28;20389;-75
2021/08/10 03:46:14;;;;;;;6.90;5.30;;;;;;;24.48;nan;95259.72;5028115;28;20017;-74
2021/08/10 03:48:41;;;;;;;7.97;5.55;;;;;;;24.47;nan;95263.72;4997758;28;20029;-73
2021/08/10 03:51:07;;;;;;;10.68;5.78;;;;;;;24.43;nan;95253.06;4990374;28;20493;-74
2021/08/10 03:53:34;;;;;;;7.82;5.85;;;;;;;24.39;nan;95262.78;4988458;28;20060;-73
2021/08/10 03:56:00;;;;;;;9.70;5.88;;;;;;;24.35;nan;95257.63;4994094;28;20036;-73
2021/08/10 03:58:25;;;;;;;8.25;5.78;;;;;;;24.35;nan;95262.34;5023201;28;20408;-73
2021/08/10 04:00:51;;;;;;;10.00;6.35;;;;;;;24.29;nan;95269.06;5012436;28;20118;-73
2021/08/10 04:03:16;;;;;;;9.07;6.53;;;;;;;24.26;nan;95259.16;5009642;28;20057;-74
2021/08/10 04:05:45;;;;;;;9.15;5.90;;;;;;;24.29;nan;95258.91;5008692;28;20026;-74
2021/08/10 04:08:11;;;;;;;7.93;6.20;;;;;;;24.29;nan;95264.34;5025242;28;20583;-77
2021/08/10 04:10:43;;;;;;;9.98;6.30;;;;;;;24.28;nan;95262.88;5015661;28;20065;-76
2021/08/10 04:13:10;;;;;;;9.07;6.45;;;;;;;24.27;nan;95261.38;5003734;28;20040;-76
2021/08/10 04:15:43;;;;;;;11.43;6.57;;;;;;;24.25;nan;95252.97;5031683;28;20017;-76
2021/08/10 04:18:15;;;;;;;8.48;6.43;;;;;;;24.25;nan;95263.88;5029661;28;20279;-76
2021/08/10 04:20:40;;;;;;;9.50;6.60;;;;;;;24.26;nan;95265.38;5027682;28;20017;-74
2021/08/10 04:23:06;;;;;;;8.35;6.57;;;;;;;24.27;nan;95261.38;5026297;28;20656;-75
2021/08/10 04:25:32;;;;;;;9.77;6.28;;;;;;;24.25;nan;95263.88;5008827;28;20036;-75
2021/08/10 04:27:58;;;;;;;11.65;5.93;;;;;;;24.26;nan;95265.38;5026520;28;20040;-76
2021/08/10 04:30:23;;;;;;;9.52;6.38;;;;;;;24.27;nan;95261.38;5024998;28;20479;-75
2021/08/10 04:32:48;;;;;;;10.10;6.35;;;;;;;24.27;nan;95272.28;5024391;28;20049;-76
2021/08/10 04:35:14;;;;;;;11.57;6.25;;;;;;;24.26;nan;95270.06;5035002;28;20483;-73
2021/08/10 04:37:39;;;;;;;10.02;5.95;;;;;;;24.33;nan;95270.28;5039022;28;20020;-73
2021/08/10 04:40:06;;;;;;;9.35;6.57;;;;;;;24.36;nan;95274.72;5029245;28;20021;-72
2021/08/10 04:42:31;;;;;;;9.73;6.28;;;;;;;24.38;nan;95283.16;5041716;28;20032;-73
2021/08/10 04:44:56;;;;;;;9.57;6.05;;;;;;;24.43;nan;95290.56;5020451;28;20029;-73
2021/08/10 04:47:22;;;;;;;9.73;6.25;;;;;;;24.48;nan;95287.03;5040191;28;20439;-73
2021/08/10 04:49:47;;;;;;;10.60;6.40;;;;;;;24.49;nan;95283.06;5040322;28;20039;-72
2021/08/10 04:52:13;;;;;;;18.15;9.95;;;;;;;24.53;nan;95289.72;5035575;28;20048;-71
2021/08/10 04:54:38;;;;;;;18.02;12.88;;;;;;;24.59;nan;95284.94;5040723;28;20025;-72
2021/08/10 04:57:04;;;;;;;13.75;7.78;;;;;;;24.67;nan;95282.41;5044159;28;20458;-72
2021/08/10 04:59:29;;;;;;;13.02;7.50;;;;;;;24.73;nan;95292.00;5044893;28;20803;-72
2021/08/10 05:01:54;;;;;;;12.18;6.50;;;;;;;24.86;nan;95292.88;5042729;28;20021;-72
2021/08/10 05:04:20;;;;;;;11.98;6.32;;;;;;;24.95;nan;95292.53;5024534;28;20063;-72
2021/08/10 05:06:45;;;;;;;11.07;6.13;;;;;;;24.99;nan;95293.03;5038125;28;20017;-72
2021/08/10 05:09:11;;;;;;;12.07;6.50;;;;;;;25.16;nan;95307.25;5025180;28;20704;-73
2021/08/10 05:11:36;;;;;;;14.20;6.55;;;;;;;25.22;nan;95299.72;5025143;28;20671;-72
2021/08/10 05:14:02;;;;;;;9.77;6.25;;;;;;;25.34;nan;95301.81;5044498;28;20036;-72
2021/08/10 05:16:27;;;;;;;10.88;6.60;;;;;;;25.44;nan;95299.44;5042566;28;20035;-72
2021/08/10 05:18:53;;;;;;;8.80;6.03;;;;;;;25.59;nan;95299.75;5041312;28;20493;-75
2021/08/10 05:21:19;;;;;;;15.75;6.95;;;;;;;25.72;nan;95297.13;5020398;28;20033;-74
2021/08/10 05:23:45;;;;;;;10.73;6.22;;;;;;;25.82;nan;95302.44;5024634;28;20033;-76
2021/08/10 05:26:11;;;;;;;11.15;5.75;;;;;;;25.95;nan;95294.31;5029228;28;20086;-72
2021/08/10 05:28:36;;;;;;;12.80;5.93;;;;;;;26.12;nan;95300.28;5040061;28;20029;-72
2021/08/10 05:31:02;;;;;;;10.43;6.53;;;;;;;26.23;nan;95296.63;5035437;28;20053;-73
2021/08/10 05:33:27;;;;;;;17.58;7.32;;;;;;;26.32;nan;95294.28;5041521;28;20035;-75
2021/08/10 05:35:52;;;;;;;10.95;6.88;;;;;;;26.40;nan;95301.38;5038374;28;20072;-72
2021/08/10 05:38:18;;;;;;;13.73;6.40;;;;;;;26.55;nan;95289.94;5039642;28;20032;-73
2021/08/10 05:40:43;;;;;;;11.70;7.20;;;;;;;26.66;nan;95289.75;5043799;28;20051;-77
2021/08/10 05:43:09;;;;;;;11.95;6.38;;;;;;;26.75;nan;95283.84;5044090;28;20503;-77
2021/08/10 05:45:34;;;;;;;11.50;6.22;;;;;;;26.87;nan;95283.13;5044274;28;20385;-77
2021/08/10 05:48:00;;;;;;;14.57;6.68;;;;;;;26.87;nan;95283.84;5022776;28;20674;-76
2021/08/10 05:50:25;;;;;;;15.32;6.40;;;;;;;27.01;nan;95285.38;5024875;28;20022;-76
2021/08/10 05:52:52;;;;;;;11.50;6.60;;;;;;;27.13;nan;95283.91;5043364;28;20040;-77
2021/08/10 05:55:17;;;;;;;14.13;6.13;;;;;;;27.21;nan;95290.22;5043534;28;20695;-77
2021/08/10 05:57:42;;;;;;;12.75;6.45;;;;;;;27.27;nan;95288.13;5037253;28;20021;-77
2021/08/10 06:00:08;;;;;;;7.93;5.63;;;;;;;27.28;nan;95289.59;5040868;28;20082;-77
2021/08/10 06:02:35;;;;;;;9.38;5.72;;;;;;;27.41;nan;95292.31;5041492;28;20087;-78
2021/08/10 06:05:00;;;;;;;12.60;5.75;;;;;;;27.57;nan;95294.03;5036435;28;20037;-73
2021/08/10 06:07:26;;;;;;;11.90;6.03;;;;;;;27.69;nan;95300.78;5044220;28;20021;-74
2021/08/10 06:09:51;;;;;;;13.18;5.75;;;;;;;27.77;nan;95294.84;5043071;28;21401;-73
2021/08/10 06:12:17;;;;;;;7.60;5.68;;;;;;;27.82;nan;95296.72;5041644;28;20021;-73
2021/08/10 06:14:42;;;;;;;10.90;6.05;;;;;;;27.83;nan;95300.94;5041322;28;20013;-68
2021/08/10 06:17:08;;;;;;;9.70;5.65;;;;;;;27.98;nan;95301.13;5041883;28;20108;-72
2021/08/10 06:19:35;;;;;;;7.88;5.13;;;;;;;28.10;nan;95291.38;5043523;28;20029;-71
2021/08/10 06:22:01;;;;;;;12.20;5.15;;;;;;;28.20;nan;95306.13;5040440;28;20567;-71
2021/08/10 06:24:31;;;;;;;7.18;5.35;;;;;;;28.33;nan;95303.34;5043224;28;20032;-72
2021/08/10 06:26:56;;;;;;;10.90;5.10;;;;;;;28.42;nan;95300.84;5042246;28;20412;-70
2021/08/10 06:29:22;;;;;;;9.75;5.50;;;;;;;28.48;nan;95303.47;5043978;28;20028;-72
2021/08/10 06:31:48;;;;;;;11.45;5.20;;;;;;;28.57;nan;95300.25;5043249;28;20032;-72
2021/08/10 06:34:13;;;;;;;9.77;5.80;;;;;;;28.63;nan;95292.63;5038639;28;20431;-72
2021/08/10 06:36:39;;;;;;;7.15;4.88;;;;;;;28.67;nan;95304.03;5039559;28;20028;-72
2021/08/10 06:39:05;;;;;;;10.10;5.03;;;;;;;28.71;nan;95304.44;5019427;28;20037;-71
2021/08/10 06:41:30;;;;;;;8.15;4.60;;;;;;;28.71;nan;95294.16;5026491;28;20040;-71
2021/08/10 06:43:56;;;;;;;7.15;4.88;;;;;;;28.71;nan;95298.94;5041613;28;20044;-71
2021/08/10 06:46:24;;;;;;;6.93;5.07;;;;;;;28.71;nan;95304.44;4990385;28;20697;-72
2021/08/10 06:48:50;;;;;;;6.85;5.22;;;;;;;28.72;nan;95290.88;5031246;28;20513;-71
2021/08/10 06:51:15;;;;;;;8.85;5.43;;;;;;;28.71;nan;95287.94;5035744;28;20056;-72
2021/08/10 06:53:40;;;;;;;6.68;5.20;;;;;;;28.69;nan;95290.50;5027703;28;20748;-72
2021/08/10 06:56:06;;;;;;;10.23;4.72;;;;;;;28.62;nan;95280.13;5032157;28;20531;-72
2021/08/10 06:58:31;;;;;;;7.38;4.50;;;;;;;28.66;nan;95286.06;5032203;28;20029;-71
2021/08/10 07:00:57;;;;;;;8.43;5.07;;;;;;;28.63;nan;95293.34;5040714;28;20500;-72
2021/08/10 07:03:22;;;;;;;8.55;4.95;;;;;;;28.61;nan;95289.66;5046327;28;20056;-71
2021/08/10 07:05:47;;;;;;;6.70;4.65;;;;;;;28.61;nan;95284.16;5039599;28;20024;-72
2021/08/10 07:08:13;;;;;;;8.70;4.85;;;;;;;28.54;nan;95279.34;5043225;28;20040;-72
2021/08/10 07:10:38;;;;;;;6.80;5.05;;;;;;;28.60;nan;95293.69;5041612;28;20033;-72
2021/08/10 07:13:04;;;;;;;6.03;4.63;;;;;;;28.58;nan;95279.72;5017334;28;20165;-71
2021/08/10 07:15:29;;;;;;;8.70;4.75;;;;;;;28.54;nan;95284.84;5011123;28;20609;-71
2021/08/10 07:17:55;;;;;;;6.97;5.03;;;;;;;28.57;nan;95283.78;5044494;28;20037;-71
2021/08/10 07:20:20;;;;;;;6.45;4.88;;;;;;;28.48;nan;95276.00;5042998;28;20032;-73
2021/08/10 07:22:46;;;;;;;7.25;4.63;;;;;;;28.52;nan;95276.38;5046384;28;20032;-71
2021/08/10 07:25:11;;;;;;;7.50;4.95;;;;;;;28.52;nan;95270.88;5021200;28;20025;-71
2021/08/10 07:27:37;;;;;;;6.55;4.75;;;;;;;28.51;nan;95274.94;5038379;28;20030;-72
2021/08/10 07:30:02;;;;;;;8.30;4.80;;;;;;;28.49;nan;95277.44;5025496;28;20492;-71
2021/08/10 07:32:28;;;;;;;7.72;5.20;;;;;;;28.47;nan;95269.03;5044875;28;20032;-71
2021/08/10 07:34:53;;;;;;;7.25;4.88;;;;;;;28.45;nan;95277.06;5030347;28;20029;-71
2021/08/10 07:37:19;;;;;;;8.38;5.28;;;;;;;28.46;nan;95273.03;5003217;28;20413;-71
2021/08/10 07:39:44;;;;;;;7.00;5.07;;;;;;;28.43;nan;95268.59;5017895;28;20028;-71
2021/08/10 07:42:10;;;;;;;6.65;5.05;;;;;;;28.44;nan;95265.31;5021590;28;20033;-78
2021/08/10 07:44:35;;;;;;;6.88;5.00;;;;;;;28.40;nan;95264.19;5004214;28;20028;-70
2021/08/10 07:47:03;;;;;;;6.90;4.88;;;;;;;28.47;nan;95269.03;5001698;28;20036;-70
2021/08/10 07:49:29;;;;;;;6.82;4.90;;;;;;;28.47;nan;95269.75;5025283;28;20029;-71
2021/08/10 07:51:55;;;;;;;8.50;5.13;;;;;;;28.49;nan;95271.97;5008401;28;20092;-71
2021/08/10 07:54:20;;;;;;;7.63;5.05;;;;;;;28.49;nan;95266.47;5026476;28;20035;-71
2021/08/10 07:56:45;;;;;;;7.05;5.05;;;;;;;28.52;nan;95259.91;5027170;28;20021;-76
2021/08/10 07:59:11;;;;;;;8.52;5.10;;;;;;;28.54;nan;95265.59;5004429;28;20037;-72
2021/08/10 08:01:36;;;;;;;8.45;5.13;;;;;;;28.52;nan;95251.66;5026907;28;20021;-76
2021/08/10 08:04:02;;;;;;;7.40;4.95;;;;;;;28.55;nan;95269.81;5026656;28;20447;-75
2021/08/10 08:06:27;;;;;;;6.82;5.13;;;;;;;28.53;nan;95266.88;5026819;28;20522;-75
2021/08/10 08:08:53;;;;;;;8.05;4.80;;;;;;;28.53;nan;95261.38;5008458;28;20030;-71
2021/08/10 08:11:18;;;;;;;6.65;5.20;;;;;;;28.55;nan;95253.31;5009105;28;20573;-72
2021/08/10 08:13:44;;;;;;;10.15;5.22;;;;;;;28.54;nan;95262.84;5025401;28;20029;-70
2021/08/10 08:16:09;;;;;;;8.73;5.20;;;;;;;28.46;nan;95257.31;5025755;28;20022;-70
2021/08/10 08:18:34;;;;;;;7.35;5.03;;;;;;;28.26;nan;95254.53;5007989;28;20385;-70
2021/08/10 08:21:00;;;;;;;6.03;5.20;;;;;;;28.05;nan;95256.50;5000346;28;20026;-70
2021/08/10 08:23:27;;;;;;;6.88;5.22;;;;;;;27.89;nan;95254.91;5008660;28;20028;-70
2021/08/10 08:25:53;;;;;;;8.10;5.25;;;;;;;27.76;nan;95252.19;5026485;28;20049;-70
2021/08/10 08:28:18;;;;;;;6.90;4.80;;;;;;;27.60;nan;95255.28;5025302;28;20087;-70
2021/08/10 08:30:44;;;;;;;8.02;5.40;;;;;;;27.37;nan;95253.53;5029577;28;20028;-70
2021/08/10 08:33:10;;;;;;;6.85;4.72;;;;;;;27.40;nan;95247.69;5020249;28;20026;-71
2021/08/10 08:35:36;;;;;;;5.53;4.78;;;;;;;27.17;nan;95218.50;5025855;28;20041;-70
2021/08/10 08:38:01;;;;;;;5.95;4.88;;;;;;;27.27;nan;95238.75;5025268;28;20049;-70
2021/08/10 08:40:27;;;;;;;7.22;5.32;;;;;;;27.28;nan;95229.28;5026470;28;20040;-72
2021/08/10 08:42:52;;;;;;;6.72;5.07;;;;;;;27.37;nan;95248.03;5008045;28;20029;-72
2021/08/10 08:45:18;;;;;;;7.60;5.03;;;;;;;27.27;nan;95238.75;5025358;28;20083;-70
2021/08/10 08:47:51;;;;;;;6.35;4.80;;;;;;;27.33;nan;95231.16;5008827;28;20096;-71
2021/08/10 08:50:18;;;;;;;6.60;5.15;;;;;;;27.30;nan;95226.72;5006239;28;20034;-71
2021/08/10 08:52:45;;;;;;;6.40;4.85;;;;;;;27.27;nan;95236.75;5027550;28;20057;-71
2021/08/10 08:55:10;;;;;;;7.13;4.90;;;;;;;27.27;nan;95222.31;4991801;28;20021;-71
2021/08/10 08:57:36;;;;;;;6.55;5.03;;;;;;;27.25;nan;95241.31;5022814;28;20029;-71
2021/08/10 09:00:02;;;;;;;5.72;4.80;;;;;;;27.21;nan;95224.41;5017473;28;20033;-71
2021/08/10 09:02:27;;;;;;;6.75;4.70;;;;;;;27.20;nan;95220.19;5012886;28;20040;-71
2021/08/10 09:04:53;;;;;;;7.05;5.57;;;;;;;27.18;nan;95214.50;4988740;28;20026;-70
2021/08/10 09:07:18;;;;;;;6.35;4.72;;;;;;;27.18;nan;95220.00;5015069;28;20025;-70
2021/08/10 09:09:46;;;;;;;7.70;4.80;;;;;;;27.15;nan;95210.09;4996756;28;20034;-71
2021/08/10 09:12:13;;;;;;;6.97;4.93;;;;;;;27.16;nan;95206.09;5004433;28;20107;-71
2021/08/10 09:14:51;;;;;;;5.72;4.80;;;;;;;27.19;nan;95205.03;5002499;28;20172;-71
2021/08/10 09:17:17;;;;;;;6.80;4.18;;;;;;;27.23;nan;95205.41;5024509;28;20132;-71
2021/08/10 09:19:53;;;;;;;5.70;4.35;;;;;;;27.29;nan;95206.03;5021855;28;20109;-73
2021/08/10 09:22:27;;;;;;;5.35;4.25;;;;;;;27.34;nan;95194.25;5022502;28;20029;-72
2021/08/10 09:24:52;;;;;;;5.63;4.22;;;;;;;27.40;nan;95198.31;5003270;28;20021;-72
2021/08/10 09:27:28;;;;;;;7.95;4.53;;;;;;;27.48;nan;95199.16;5020729;28;20099;-73
2021/08/10 09:29:54;;;;;;;5.47;3.92;;;;;;;27.48;nan;95181.97;5016578;28;20032;-72
2021/08/10 09:32:19;;;;;;;6.95;4.60;;;;;;;27.64;nan;95189.84;4992217;28;20073;-71
2021/08/10 09:34:45;;;;;;;5.75;4.40;;;;;;;27.71;nan;95182.94;5005843;28;20065;-71
2021/08/10 09:37:15;;;;;;;5.97;4.05;;;;;;;27.78;nan;95186.50;5013435;28;20043;-69
2021/08/10 09:39:40;;;;;;;;;;;;;;;27.89;nan;95177.28;5025704;28;20091;-73
2021/08/10 09:42:07;;;;;;;6.40;4.03;;;;;;;27.93;nan;95178.41;5022062;28;20382;-71
2021/08/10 09:44:33;;;;;;;6.60;4.25;;;;;;;28.01;nan;95157.28;5019369;28;20284;-76
2021/08/10 09:46:58;;;;;;;8.15;4.63;;;;;;;28.07;nan;95146.88;5001164;28;20021;-76
2021/08/10 09:49:24;;;;;;;7.68;5.70;;;;;;;28.11;nan;95144.56;5007539;28;20036;-71
2021/08/10 09:51:51;;;;;;;7.93;5.43;;;;;;;28.07;nan;95133.16;5011249;28;20032;-72
2021/08/10 09:54:16;;;;;;;7.18;4.70;;;;;;;28.28;nan;95142.09;5011948;28;20033;-69
2021/08/10 09:59:25;;;;;;;7.63;4.30;;;;;;;28.39;nan;95147.34;4984874;28;20456;-72
2021/08/10 10:01:53;;;;;;;7.22;4.45;;;;;;;28.47;nan;95170.09;5012756;28;20033;-72
2021/08/10 10:04:26;;;;;;;7.15;4.53;;;;;;;28.58;nan;95164.31;5006299;28;20160;-72
2021/08/10 10:06:53;;;;;;;7.20;4.70;;;;;;;28.69;nan;95175.06;5035456;28;20025;-71
2021/08/10 10:09:20;;;;;;;6.45;4.53;;;;;;;28.69;nan;95175.06;5025697;28;20017;-71
2021/08/10 10:11:47;;;;;;;6.07;4.15;;;;;;;28.73;nan;95165.91;5007320;28;20091;-71
2021/08/10 10:14:12;;;;;;;8.45;4.28;;;;;;;28.72;nan;95158.94;5023660;28;20025;-71
2021/08/10 10:16:49;;;;;;;5.30;4.13;;;;;;;28.74;nan;95150.91;5023226;28;20097;-71
2021/08/10 10:19:15;;;;;;;7.80;4.80;;;;;;;28.72;nan;95147.22;5024968;28;20495;-72
2021/08/10 10:21:50;;;;;;;5.97;4.10;;;;;;;28.73;nan;95154.91;5024966;28;20326;-70
2021/08/10 10:24:16;;;;;;;6.50;3.55;;;;;;;28.75;nan;95146.84;5026162;28;20155;-71
2021/08/10 10:26:43;;;;;;;5.50;4.10;;;;;;;28.75;nan;95152.34;5043383;28;20028;-70
2021/08/10 10:29:10;;;;;;;6.30;4.22;;;;;;;28.77;nan;95149.81;5046910;28;20033;-72
2021/08/10 10:31:35;;;;;;;6.57;4.10;;;;;;;28.80;nan;95147.97;5045829;28;20025;-72
2021/08/10 10:34:01;;;;;;;6.80;3.80;;;;;;;28.79;nan;95130.75;5046063;28;20151;-71
2021/08/10 10:36:26;;;;;;;5.63;3.88;;;;;;;28.87;nan;95137.03;4993269;28;20079;-70
2021/08/10 10:38:54;;;;;;;4.90;3.83;;;;;;;28.68;nan;95140.59;5039924;28;20018;-71
2021/08/10 10:41:20;;;;;;;4.75;3.95;;;;;;;28.41;nan;95139.28;5013845;28;20037;-71
2021/08/10 10:43:45;;;;;;;5.63;3.97;;;;;;;28.19;nan;95133.63;4995011;28;20088;-71
2021/08/10 10:46:26;;;;;;;5.32;3.92;;;;;;;27.99;nan;95132.34;4993911;28;20034;-71
2021/08/10 10:48:52;;;;;;;4.93;3.58;;;;;;;27.70;nan;95132.06;5036300;28;20044;-75
2021/08/10 10:51:28;;;;;;;5.03;3.70;;;;;;;27.68;nan;95135.34;5011981;28;20510;-72
2021/08/10 10:54:15;;;;;;;5.35;3.55;;;;;;;27.45;nan;95133.63;5031843;28;20021;-71
2021/08/10 10:56:40;;;;;;;5.15;3.83;;;;;;;27.32;nan;95130.94;5017268;28;20037;-71
2021/08/10 10:59:38;;;;;;;5.70;3.38;;;;;;;27.29;nan;95126.50;4989006;28;20110;-70
2021/08/10 11:02:14;;;;;;;5.47;3.85;;;;;;;27.24;nan;95119.16;5021039;28;20037;-70
2021/08/10 11:05:05;;;;;;;4.72;3.42;;;;;;;27.21;nan;95119.47;5047197;28;20080;-70
2021/08/10 11:07:37;;;;;;;5.47;3.58;;;;;;;27.23;nan;95112.19;5044747;28;20021;-69
2021/08/10 11:10:12;;;;;;;5.70;3.50;;;;;;;27.27;nan;95120.81;5044106;28;20048;-70
2021/08/10 11:12:47;;;;;;;5.15;4.05;;;;;;;27.40;nan;95109.81;5046018;28;20119;-68
2021/08/10 11:15:19;;;;;;;4.20;3.30;;;;;;;27.50;nan;95113.59;5039025;28;20037;-68
2021/08/10 11:18:06;;;;;;;4.97;3.47;;;;;;;27.61;nan;95118.81;5041756;28;20021;-71
2021/08/10 11:20:31;;;;;;;5.03;3.85;;;;;;;27.67;nan;95105.69;5045088;28;20039;-70
2021/08/10 11:23:26;;;;;;;4.78;3.28;;;;;;;27.89;nan;95117.63;5024983;28;20018;-68
2021/08/10 11:25:58;;;;;;;4.80;3.45;;;;;;;28.06;nan;95112.44;5039692;28;20043;-70
2021/08/10 11:28:26;;;;;;;4.80;3.40;;;;;;;28.22;nan;95110.56;5038255;28;20755;-70
2021/08/10 11:30:52;;;;;;;5.10;3.47;;;;;;;28.30;nan;95112.09;5027424;28;20041;-70
2021/08/10 11:33:30;;;;;;;4.72;3.58;;;;;;;28.35;nan;95113.97;5025913;28;20044;-71
2021/08/10 11:35:56;;;;;;;5.57;3.60;;;;;;;28.41;nan;95100.81;5027142;28;20030;-71
2021/08/10 11:38:21;;;;;;;4.53;3.38;;;;;;;28.45;nan;95098.47;5026477;28;20467;-70
2021/08/10 11:40:58;;;;;;;4.28;3.22;;;;;;;28.44;nan;95099.75;5027452;28;20068;-70
2021/08/10 11:43:34;;;;;;;5.72;3.58;;;;;;;28.42;nan;95107.78;5027657;28;20116;-70
2021/08/10 11:46:00;;;;;;;4.28;3.35;;;;;;;28.35;nan;95086.50;5009695;28;20033;-71
2021/08/10 11:48:25;;;;;;;4.78;3.40;;;;;;;28.35;nan;95094.72;5009694;28;20079;-70
2021/08/10 11:50:51;;;;;;;4.03;3.17;;;;;;;28.28;nan;95098.16;5027248;28;20037;-70
2021/08/10 11:53:30;;;;;;;5.15;3.35;;;;;;;28.23;nan;95096.31;5009756;28;20031;-71